sensor_id;sensor_type;location;lat;lon;timestamp;pressure;altitude;pressure_sealevel;temperature;humidity
57799;BME280;43626;53.866;30.298;2023-07-20T00:00:24;1014.8;;;17.1;57.6
57799;BME280;43626;53.866;30.298;2023-07-20T00:05:10;1014.8;;;17.1;58
57799;BME280;43626;53.866;30.298;2023-07-20T00:10:50;1014.8;;;17;58.2
57799;BME280;43626;53.866;30.298;2023-07-20T00:15:58;1014.9;;;17;58.6
57799;BME280;43626;53.866;30.298;2023-07-20T00:20:58;1014.9;;;16.9;58.6
57799;BME280;43626;53.866;30.298;2023-07-20T00:25:36;1014.9;;;16.9;58.7
57799;BME280;43626;53.866;30.298;2023-07-20T00:30:30;1014.9;;;16.9;58.9
57799;BME280;43626;53.866;30.298;2023-07-20T00:35:38;1015;;;16.8;59.1
57799;BME280;43626;53.866;30.298;2023-07-20T00:40:24;1015;;;16.8;59.3
57799;BME280;43626;53.866;30.298;2023-07-20T00:45:18;1015;;;16.8;59.8
57799;BME280;43626;53.866;30.298;2023-07-20T00:50:50;1015.1;;;16.7;60.1
57799;BME280;43626;53.866;30.298;2023-07-20T00:55:58;1015.1;;;16.7;60.3
57799;BME280;43626;53.866;30.298;2023-07-20T01:00:18;1015.1;;;16.7;60.3
57799;BME280;43626;53.866;30.298;2023-07-20T01:05:38;1015.1;;;16.7;60.2
57799;BME280;43626;53.866;30.298;2023-07-20T01:10:59;1015.1;;;16.7;60.1
57799;BME280;43626;53.866;30.298;2023-07-20T01:15:48;1015.1;;;16.7;59.9
57799;BME280;43626;53.866;30.298;2023-07-20T01:20:19;1015.1;;;16.7;59.8
57799;BME280;43626;53.866;30.298;2023-07-20T01:25:51;1015.1;;;16.7;59.8
57799;BME280;43626;53.866;30.298;2023-07-20T01:30:52;1015.1;;;16.7;59.7
57799;BME280;43626;53.866;30.298;2023-07-20T01:35:12;1015.1;;;16.7;59.7
57799;BME280;43626;53.866;30.298;2023-07-20T01:40:36;1015;;;16.7;59.7
57799;BME280;43626;53.866;30.298;2023-07-20T01:45:58;1015;;;16.7;59.6
57799;BME280;43626;53.866;30.298;2023-07-20T01:50:50;1015;;;16.7;59.8
57799;BME280;43626;53.866;30.298;2023-07-20T01:55:24;1015.1;;;16.6;59.6
57799;BME280;43626;53.866;30.298;2023-07-20T02:00:30;1015;;;16.6;59.8
57799;BME280;43626;53.866;30.298;2023-07-20T02:05:58;1015;;;16.6;60
57799;BME280;43626;53.866;30.298;2023-07-20T02:10:18;1015;;;16.6;59.9
57799;BME280;43626;53.866;30.298;2023-07-20T02:15:12;1015;;;16.7;59.7
57799;BME280;43626;53.866;30.298;2023-07-20T02:20:20;1015.1;;;16.7;59.8
57799;BME280;43626;53.866;30.298;2023-07-20T02:25:50;1015.2;;;16.7;59.8
57799;BME280;43626;53.866;30.298;2023-07-20T02:30:58;1015.2;;;16.7;59.9
57799;BME280;43626;53.866;30.298;2023-07-20T02:35:12;1015.2;;;16.7;59.8
57799;BME280;43626;53.866;30.298;2023-07-20T02:40:12;1015.2;;;16.7;59.8
57799;BME280;43626;53.866;30.298;2023-07-20T02:45:10;1015.2;;;16.7;58.9
57799;BME280;43626;53.866;30.298;2023-07-20T02:50:58;1015.2;;;16.7;58.4
57799;BME280;43626;53.866;30.298;2023-07-20T02:55:44;1015.3;;;16.7;57.9
57799;BME280;43626;53.866;30.298;2023-07-20T03:00:48;1015.2;;;16.7;58
57799;BME280;43626;53.866;30.298;2023-07-20T03:05:56;1015.3;;;16.7;58
57799;BME280;43626;53.866;30.298;2023-07-20T03:10:38;1015.2;;;16.7;58.1
57799;BME280;43626;53.866;30.298;2023-07-20T03:15:18;1015.2;;;16.7;58
57799;BME280;43626;53.866;30.298;2023-07-20T03:20:44;1015.2;;;16.7;57.9
57799;BME280;43626;53.866;30.298;2023-07-20T03:25:58;1015.3;;;16.7;58
57799;BME280;43626;53.866;30.298;2023-07-20T03:30:38;1015.3;;;16.8;58
57799;BME280;43626;53.866;30.298;2023-07-20T03:35:12;1015.3;;;16.8;57.9
57799;BME280;43626;53.866;30.298;2023-07-20T03:40:58;1015.3;;;16.8;57.3
57799;BME280;43626;53.866;30.298;2023-07-20T03:45:22;1015.4;;;16.8;56.9
57799;BME280;43626;53.866;30.298;2023-07-20T03:50:18;1015.3;;;16.7;56.9
57799;BME280;43626;53.866;30.298;2023-07-20T03:55:38;1015.4;;;16.8;57
57799;BME280;43626;53.866;30.298;2023-07-20T04:00:38;1015.4;;;16.8;57.3
57799;BME280;43626;53.866;30.298;2023-07-20T04:05:58;1015.4;;;16.9;57.3
57799;BME280;43626;53.866;30.298;2023-07-20T04:10:44;1015.3;;;17.1;57.1
57799;BME280;43626;53.866;30.298;2023-07-20T04:15:36;1015.3;;;17.3;56.4
57799;BME280;43626;53.866;30.298;2023-07-20T04:20:12;1015.3;;;17.4;55.9
57799;BME280;43626;53.866;30.298;2023-07-20T04:25:18;1015.4;;;17.6;55.4
57799;BME280;43626;53.866;30.298;2023-07-20T04:30:18;1015.4;;;17.6;55.1
57799;BME280;43626;53.866;30.298;2023-07-20T04:35:47;1015.4;;;17.7;54.7
57799;BME280;43626;53.866;30.298;2023-07-20T04:40:38;1015.4;;;17.7;54.1
57799;BME280;43626;53.866;30.298;2023-07-20T04:45:58;1015.5;;;17.6;54.2
57799;BME280;43626;53.866;30.298;2023-07-20T04:50:36;1015.5;;;17.6;54.3
57799;BME280;43626;53.866;30.298;2023-07-20T04:55:26;1015.5;;;17.7;53.9
57799;BME280;43626;53.866;30.298;2023-07-20T05:00:38;1015.5;;;17.8;53.8
57799;BME280;43626;53.866;30.298;2023-07-20T05:05:22;1015.5;;;17.9;53.5
57799;BME280;43626;53.866;30.298;2023-07-20T05:10:28;1015.6;;;17.9;53.4
57799;BME280;43626;53.866;30.298;2023-07-20T05:15:32;1015.5;;;18.1;53.2
57799;BME280;43626;53.866;30.298;2023-07-20T05:20:58;1015.6;;;18.3;53.1
57799;BME280;43626;53.866;30.298;2023-07-20T05:25:24;1015.6;;;18.5;52.8
57799;BME280;43626;53.866;30.298;2023-07-20T05:30:58;1015.7;;;18.5;52.5
57799;BME280;43626;53.866;30.298;2023-07-20T05:35:58;1015.7;;;18.4;51.8
57799;BME280;43626;53.866;30.298;2023-07-20T05:40:59;1015.7;;;18.4;52.3
57799;BME280;43626;53.866;30.298;2023-07-20T05:45:30;1015.7;;;18.5;52.6
57799;BME280;43626;53.866;30.298;2023-07-20T05:50:44;1015.7;;;18.6;52.3
57799;BME280;43626;53.866;30.298;2023-07-20T05:55:38;1015.7;;;18.6;52.2
57799;BME280;43626;53.866;30.298;2023-07-20T06:00:18;1015.7;;;18.7;52
57799;BME280;43626;53.866;30.298;2023-07-20T06:05:30;1015.7;;;18.7;52.1
57799;BME280;43626;53.866;30.298;2023-07-20T06:10:42;1015.7;;;18.8;51.9
57799;BME280;43626;53.866;30.298;2023-07-20T06:15:50;1015.7;;;18.9;51.8
57799;BME280;43626;53.866;30.298;2023-07-20T06:20:30;1015.6;;;19;51.8
57799;BME280;43626;53.866;30.298;2023-07-20T06:25:18;1015.5;;;19.2;52
57799;BME280;43626;53.866;30.298;2023-07-20T06:30:14;1015.5;;;19.4;52
57799;BME280;43626;53.866;30.298;2023-07-20T06:35:30;1015.4;;;19.5;51.4
57799;BME280;43626;53.866;30.298;2023-07-20T06:40:18;1015.4;;;19.6;50.7
57799;BME280;43626;53.866;30.298;2023-07-20T06:45:38;1015.3;;;19.6;50.7
57799;BME280;43626;53.866;30.298;2023-07-20T06:50:50;1015.3;;;19.9;49.9
57799;BME280;43626;53.866;30.298;2023-07-20T06:55:58;1015.3;;;19.9;50.2
57799;BME280;43626;53.866;30.298;2023-07-20T07:00:36;1015.4;;;19.9;49.6
57799;BME280;43626;53.866;30.298;2023-07-20T07:05:12;1015.4;;;19.8;49.6
57799;BME280;43626;53.866;30.298;2023-07-20T07:10:18;1015.4;;;19.7;49.8
57799;BME280;43626;53.866;30.298;2023-07-20T07:15:58;1015.4;;;19.6;49.8
57799;BME280;43626;53.866;30.298;2023-07-20T07:20:58;1015.4;;;19.6;50.3
57799;BME280;43626;53.866;30.298;2023-07-20T07:25:58;1015.3;;;19.6;50.5
57799;BME280;43626;53.866;30.298;2023-07-20T07:30:58;1015.3;;;19.7;50.2
57799;BME280;43626;53.866;30.298;2023-07-20T07:35:44;1015.2;;;19.7;49.6
57799;BME280;43626;53.866;30.298;2023-07-20T07:40:12;1015.2;;;19.7;50.3
57799;BME280;43626;53.866;30.298;2023-07-20T07:45:44;1015.2;;;19.8;51
57799;BME280;43626;53.866;30.298;2023-07-20T07:50:58;1015.2;;;19.9;51
57799;BME280;43626;53.866;30.298;2023-07-20T07:55:38;1015.2;;;20;49.8
57799;BME280;43626;53.866;30.298;2023-07-20T08:00:50;1015.1;;;20.3;49.7
57799;BME280;43626;53.866;30.298;2023-07-20T08:05:56;1015;;;20.3;49.1
57799;BME280;43626;53.866;30.298;2023-07-20T08:10:12;1015;;;20.4;49
57799;BME280;43626;53.866;30.298;2023-07-20T08:15:12;1015.1;;;20.5;49.2
57799;BME280;43626;53.866;30.298;2023-07-20T08:20:12;1015.1;;;20.6;48.5
57799;BME280;43626;53.866;30.298;2023-07-20T08:25:36;1015;;;20.6;48.3
57799;BME280;43626;53.866;30.298;2023-07-20T08:30:40;1015;;;20.6;48.3
57799;BME280;43626;53.866;30.298;2023-07-20T08:35:14;1015;;;20.8;48
57799;BME280;43626;53.866;30.298;2023-07-20T08:40:39;1015;;;20.9;47.6
57799;BME280;43626;53.866;30.298;2023-07-20T08:45:18;1015;;;21;47.7
57799;BME280;43626;53.866;30.298;2023-07-20T08:50:12;1015.1;;;21.1;47
57799;BME280;43626;53.866;30.298;2023-07-20T08:55:12;1015.1;;;21.1;47.2
57799;BME280;43626;53.866;30.298;2023-07-20T09:00:30;1015.1;;;21.5;46.7
57799;BME280;43626;53.866;30.298;2023-07-20T09:05:32;1015;;;21.7;46.1
57799;BME280;43626;53.866;30.298;2023-07-20T09:10:56;1014.9;;;21.6;46.5
57799;BME280;43626;53.866;30.298;2023-07-20T09:15:12;1015;;;21.6;46.2
57799;BME280;43626;53.866;30.298;2023-07-20T09:20:12;1014.9;;;21.7;45.6
57799;BME280;43626;53.866;30.298;2023-07-20T09:25:38;1014.9;;;21.7;45.2
57799;BME280;43626;53.866;30.298;2023-07-20T09:30:18;1014.9;;;21.8;44.5
57799;BME280;43626;53.866;30.298;2023-07-20T09:35:12;1014.9;;;22;44.1
57799;BME280;43626;53.866;30.298;2023-07-20T09:40:56;1014.8;;;22.2;43.3
57799;BME280;43626;53.866;30.298;2023-07-20T09:45:57;1014.6;;;22.3;43.4
57799;BME280;43626;53.866;30.298;2023-07-20T09:50:16;1014.7;;;22.2;43.4
57799;BME280;43626;53.866;30.298;2023-07-20T09:55:32;1014.7;;;22.2;43.9
57799;BME280;43626;53.866;30.298;2023-07-20T10:00:59;1014.6;;;22.3;44.3
57799;BME280;43626;53.866;30.298;2023-07-20T10:05:24;1014.5;;;22.5;44
57799;BME280;43626;53.866;30.298;2023-07-20T10:10:18;1014.5;;;22.6;44.3
57799;BME280;43626;53.866;30.298;2023-07-20T10:15:13;1014.4;;;22.7;44.5
57799;BME280;43626;53.866;30.298;2023-07-20T10:20:50;1014.4;;;22.7;44.2
57799;BME280;43626;53.866;30.298;2023-07-20T10:25:18;1014.3;;;22.9;43.2
57799;BME280;43626;53.866;30.298;2023-07-20T10:30:18;1014.3;;;23.1;42.8
57799;BME280;43626;53.866;30.298;2023-07-20T10:36:00;1014.2;;;23.2;42.7
57799;BME280;43626;53.866;30.298;2023-07-20T10:40:53;1014.2;;;23.3;42.6
57799;BME280;43626;53.866;30.298;2023-07-20T10:45:34;1014.2;;;23.4;40.4
57799;BME280;43626;53.866;30.298;2023-07-20T10:50:12;1014.2;;;23.4;40.6
57799;BME280;43626;53.866;30.298;2023-07-20T10:55:22;1014.1;;;23.2;41.5
57799;BME280;43626;53.866;30.298;2023-07-20T11:00:24;1014.2;;;23;42
57799;BME280;43626;53.866;30.298;2023-07-20T11:05:58;1014.2;;;22.8;42.4
57799;BME280;43626;53.866;30.298;2023-07-20T11:10:44;1014.1;;;22.8;42.3
57799;BME280;43626;53.866;30.298;2023-07-20T11:16:01;1014.1;;;23;42.2
57799;BME280;43626;53.866;30.298;2023-07-20T11:20:58;1014;;;23.1;42.4
57799;BME280;43626;53.866;30.298;2023-07-20T11:25:44;1014;;;23.3;41.8
57799;BME280;43626;53.866;30.298;2023-07-20T11:30:37;1014;;;23.5;41.5
57799;BME280;43626;53.866;30.298;2023-07-20T11:35:12;1013.9;;;23.4;41.3
57799;BME280;43626;53.866;30.298;2023-07-20T11:40:58;1013.8;;;23.4;41.3
57799;BME280;43626;53.866;30.298;2023-07-20T11:45:59;1013.9;;;23.6;40.2
57799;BME280;43626;53.866;30.298;2023-07-20T11:50:56;1013.8;;;23.7;40
57799;BME280;43626;53.866;30.298;2023-07-20T11:55:58;1013.8;;;23.8;40.5
57799;BME280;43626;53.866;30.298;2023-07-20T12:00:44;1013.7;;;23.4;40.9
57799;BME280;43626;53.866;30.298;2023-07-20T12:05:18;1013.6;;;23.1;41.1
57799;BME280;43626;53.866;30.298;2023-07-20T12:10:39;1013.6;;;22.9;41.3
57799;BME280;43626;53.866;30.298;2023-07-20T12:15:58;1013.5;;;22.8;41.5
57799;BME280;43626;53.866;30.298;2023-07-20T12:20:37;1013.6;;;22.8;41.6
57799;BME280;43626;53.866;30.298;2023-07-20T12:25:32;1013.6;;;22.8;42.2
57799;BME280;43626;53.866;30.298;2023-07-20T12:30:58;1013.5;;;22.9;41.2
57799;BME280;43626;53.866;30.298;2023-07-20T12:35:29;1013.5;;;22.9;41.6
57799;BME280;43626;53.866;30.298;2023-07-20T12:40:12;1013.4;;;23.2;41
57799;BME280;43626;53.866;30.298;2023-07-20T12:45:12;1013.3;;;23.6;40.7
57799;BME280;43626;53.866;30.298;2023-07-20T12:50:38;1013.3;;;23.5;40.5
57799;BME280;43626;53.866;30.298;2023-07-20T12:55:38;1013.3;;;23.5;41.3
57799;BME280;43626;53.866;30.298;2023-07-20T13:00:44;1013.3;;;23.4;41.9
57799;BME280;43626;53.866;30.298;2023-07-20T13:05:36;1013.4;;;23.2;42.1
57799;BME280;43626;53.866;30.298;2023-07-20T13:10:50;1013.4;;;23.1;42.2
57799;BME280;43626;53.866;30.298;2023-07-20T13:15:18;1013.4;;;23.1;42.7
57799;BME280;43626;53.866;30.298;2023-07-20T13:20:18;1013.2;;;23;43.4
57799;BME280;43626;53.866;30.298;2023-07-20T13:25:18;1013.1;;;22.9;45.7
57799;BME280;43626;53.866;30.298;2023-07-20T13:30:38;1013.2;;;22.6;49.6
57799;BME280;43626;53.866;30.298;2023-07-20T13:35:58;1013.4;;;22.1;52.8
57799;BME280;43626;53.866;30.298;2023-07-20T13:40:36;1013.3;;;21.6;56.4
57799;BME280;43626;53.866;30.298;2023-07-20T13:45:12;1013.4;;;21.4;58.1
57799;BME280;43626;53.866;30.298;2023-07-20T13:50:38;1013.5;;;21.3;56.7
57799;BME280;43626;53.866;30.298;2023-07-20T13:55:12;1013.6;;;21.2;57.3
57799;BME280;43626;53.866;30.298;2023-07-20T14:00:30;1013.7;;;21;57.2
57799;BME280;43626;53.866;30.298;2023-07-20T14:05:50;1013.5;;;20.9;56.7
57799;BME280;43626;53.866;30.298;2023-07-20T14:10:58;1013.3;;;20.8;57.3
57799;BME280;43626;53.866;30.298;2023-07-20T14:15:18;1013.5;;;20.7;57.7
57799;BME280;43626;53.866;30.298;2023-07-20T14:20:12;1013.6;;;20.6;60.2
57799;BME280;43626;53.866;30.298;2023-07-20T14:25:58;1013.5;;;20.6;62.2
57799;BME280;43626;53.866;30.298;2023-07-20T14:30:12;1013.4;;;20.5;63.5
57799;BME280;43626;53.866;30.298;2023-07-20T14:35:18;1013.6;;;20.4;64.3
57799;BME280;43626;53.866;30.298;2023-07-20T14:40:36;1013.8;;;20;62.5
57799;BME280;43626;53.866;30.298;2023-07-20T14:45:50;1013.7;;;19.7;61.9
57799;BME280;43626;53.866;30.298;2023-07-20T14:50:38;1013.6;;;19.5;62.7
57799;BME280;43626;53.866;30.298;2023-07-20T14:55:12;1013.6;;;19.4;62.9
57799;BME280;43626;53.866;30.298;2023-07-20T15:00:58;1013.5;;;19.4;63.1
57799;BME280;43626;53.866;30.298;2023-07-20T15:05:50;1013.6;;;19.5;62.9
57799;BME280;43626;53.866;30.298;2023-07-20T15:10:58;1013.6;;;19.6;62.8
57799;BME280;43626;53.866;30.298;2023-07-20T15:15:30;1013.6;;;19.6;63.6
57799;BME280;43626;53.866;30.298;2023-07-20T15:20:50;1013.5;;;19.6;64
57799;BME280;43626;53.866;30.298;2023-07-20T15:25:18;1013.6;;;19.6;64.1
57799;BME280;43626;53.866;30.298;2023-07-20T15:30:59;1013.7;;;19.6;63.9
57799;BME280;43626;53.866;30.298;2023-07-20T15:35:44;1013.8;;;19.7;64.1
57799;BME280;43626;53.866;30.298;2023-07-20T15:40:48;1014;;;19.7;63.9
57799;BME280;43626;53.866;30.298;2023-07-20T15:46:00;1014;;;19.7;63.5
57799;BME280;43626;53.866;30.298;2023-07-20T15:50:38;1014.1;;;19.6;63.1
57799;BME280;43626;53.866;30.298;2023-07-20T15:55:18;1014.1;;;19.5;63.1
57799;BME280;43626;53.866;30.298;2023-07-20T16:00:28;1014.1;;;19.5;63.1
57799;BME280;43626;53.866;30.298;2023-07-20T16:05:58;1014.1;;;19.5;63.1
57799;BME280;43626;53.866;30.298;2023-07-20T16:10:58;1014;;;19.5;63.3
57799;BME280;43626;53.866;30.298;2023-07-20T16:15:58;1013.9;;;19.5;63.7
57799;BME280;43626;53.866;30.298;2023-07-20T16:20:59;1014;;;19.4;63.7
57799;BME280;43626;53.866;30.298;2023-07-20T16:25:44;1014;;;19.4;63.9
57799;BME280;43626;53.866;30.298;2023-07-20T16:30:18;1014;;;19.4;64.1
57799;BME280;43626;53.866;30.298;2023-07-20T16:35:44;1014;;;19.4;63.7
57799;BME280;43626;53.866;30.298;2023-07-20T16:40:58;1013.9;;;19.4;63.7
57799;BME280;43626;53.866;30.298;2023-07-20T16:45:36;1013.8;;;19.4;63.8
57799;BME280;43626;53.866;30.298;2023-07-20T16:50:30;1013.8;;;19.2;64.1
57799;BME280;43626;53.866;30.298;2023-07-20T16:55:56;1013.9;;;19.1;64.3
57799;BME280;43626;53.866;30.298;2023-07-20T17:00:13;1013.9;;;18.9;64.3
57799;BME280;43626;53.866;30.298;2023-07-20T17:05:24;1014;;;18.7;64.5
57799;BME280;43626;53.866;30.298;2023-07-20T17:10:18;1014;;;18.5;65.1
57799;BME280;43626;53.866;30.298;2023-07-20T17:15:38;1014;;;18.4;64.8
57799;BME280;43626;53.866;30.298;2023-07-20T17:20:38;1013.9;;;18.3;65.5
57799;BME280;43626;53.866;30.298;2023-07-20T17:25:45;1013.9;;;18.2;65.7
57799;BME280;43626;53.866;30.298;2023-07-20T17:30:44;1013.8;;;18.2;66.2
57799;BME280;43626;53.866;30.298;2023-07-20T17:35:12;1013.9;;;18.2;66.7
57799;BME280;43626;53.866;30.298;2023-07-20T17:40:13;1014;;;18.2;66.6
57799;BME280;43626;53.866;30.298;2023-07-20T17:45:24;1014;;;18.2;66.7
57799;BME280;43626;53.866;30.298;2023-07-20T17:50:30;1014.1;;;18.2;66.4
57799;BME280;43626;53.866;30.298;2023-07-20T17:55:20;1014.1;;;18.1;66.4
57799;BME280;43626;53.866;30.298;2023-07-20T18:00:58;1014.1;;;18;67
57799;BME280;43626;53.866;30.298;2023-07-20T18:05:36;1014.1;;;17.8;65.3
57799;BME280;43626;53.866;30.298;2023-07-20T18:10:30;1014;;;17.5;65.5
57799;BME280;43626;53.866;30.298;2023-07-20T18:15:38;1013.9;;;17.4;66
57799;BME280;43626;53.866;30.298;2023-07-20T18:20:12;1013.9;;;17.4;66.9
57799;BME280;43626;53.866;30.298;2023-07-20T18:25:30;1014;;;17.4;67.1
57799;BME280;43626;53.866;30.298;2023-07-20T18:30:50;1014;;;17.4;67.1
57799;BME280;43626;53.866;30.298;2023-07-20T18:35:58;1014;;;17.4;67.2
57799;BME280;43626;53.866;30.298;2023-07-20T18:40:12;1014;;;17.4;67.2
57799;BME280;43626;53.866;30.298;2023-07-20T18:45:12;1014.1;;;17.3;66.9
57799;BME280;43626;53.866;30.298;2023-07-20T18:50:58;1014.3;;;17.3;67.2
57799;BME280;43626;53.866;30.298;2023-07-20T18:55:32;1014.3;;;17.2;67.5
57799;BME280;43626;53.866;30.298;2023-07-20T19:00:30;1014.3;;;17.1;68.3
57799;BME280;43626;53.866;30.298;2023-07-20T19:05:36;1014.3;;;17.1;69
57799;BME280;43626;53.866;30.298;2023-07-20T19:10:58;1014.3;;;17.1;69.1
57799;BME280;43626;53.866;30.298;2023-07-20T19:15:18;1014.4;;;17.1;67.8
57799;BME280;43626;53.866;30.298;2023-07-20T19:20:18;1014.4;;;17.1;68.1
57799;BME280;43626;53.866;30.298;2023-07-20T19:25:44;1014.3;;;17.1;68.3
57799;BME280;43626;53.866;30.298;2023-07-20T19:30:50;1014.3;;;17.1;68.1
57799;BME280;43626;53.866;30.298;2023-07-20T19:35:58;1014.3;;;17.1;68.1
57799;BME280;43626;53.866;30.298;2023-07-20T19:40:50;1014.3;;;17.1;68
57799;BME280;43626;53.866;30.298;2023-07-20T19:45:18;1014.2;;;17.1;68
57799;BME280;43626;53.866;30.298;2023-07-20T19:50:12;1014.1;;;17.1;68
57799;BME280;43626;53.866;30.298;2023-07-20T19:55:59;1014.2;;;17;68.1
57799;BME280;43626;53.866;30.298;2023-07-20T20:00:44;1014.2;;;17;67.9
57799;BME280;43626;53.866;30.298;2023-07-20T20:05:33;1014.3;;;16.9;67.6
57799;BME280;43626;53.866;30.298;2023-07-20T20:10:58;1014.3;;;16.9;67.7
57799;BME280;43626;53.866;30.298;2023-07-20T20:15:44;1014.4;;;16.9;67.6
57799;BME280;43626;53.866;30.298;2023-07-20T20:20:18;1014.4;;;16.9;68
57799;BME280;43626;53.866;30.298;2023-07-20T20:25:12;1014.4;;;16.9;67.5
57799;BME280;43626;53.866;30.298;2023-07-20T20:30:47;1014.4;;;16.9;68
57799;BME280;43626;53.866;30.298;2023-07-20T20:35:59;1014.3;;;16.9;68.1
57799;BME280;43626;53.866;30.298;2023-07-20T20:40:58;1014.3;;;16.9;68.1
57799;BME280;43626;53.866;30.298;2023-07-20T20:46:00;1014.4;;;16.8;67.9
57799;BME280;43626;53.866;30.298;2023-07-20T20:50:44;1014.4;;;16.8;68
57799;BME280;43626;53.866;30.298;2023-07-20T20:55:12;1014.4;;;16.7;68.4
57799;BME280;43626;53.866;30.298;2023-07-20T21:00:44;1014.4;;;16.6;68.6
57799;BME280;43626;53.866;30.298;2023-07-20T21:05:58;1014.4;;;16.6;68.6
57799;BME280;43626;53.866;30.298;2023-07-20T21:10:32;1014.4;;;16.5;68.7
57799;BME280;43626;53.866;30.298;2023-07-20T21:15:30;1014.3;;;16.5;68.5
57799;BME280;43626;53.866;30.298;2023-07-20T21:20:58;1014.3;;;16.5;68.6
57799;BME280;43626;53.866;30.298;2023-07-20T21:25:18;1014.4;;;16.5;68.4
57799;BME280;43626;53.866;30.298;2023-07-20T21:30:24;1014.4;;;16.4;68.2
57799;BME280;43626;53.866;30.298;2023-07-20T21:35:12;1014.5;;;16.4;68.2
57799;BME280;43626;53.866;30.298;2023-07-20T21:40:38;1014.5;;;16.3;68
57799;BME280;43626;53.866;30.298;2023-07-20T21:45:30;1014.5;;;16.2;68
57799;BME280;43626;53.866;30.298;2023-07-20T21:50:45;1014.5;;;16.2;68
57799;BME280;43626;53.866;30.298;2023-07-20T21:55:58;1014.5;;;16.1;68
57799;BME280;43626;53.866;30.298;2023-07-20T22:00:58;1014.6;;;16;68
57799;BME280;43626;53.866;30.298;2023-07-20T22:05:12;1014.6;;;15.9;67.9
57799;BME280;43626;53.866;30.298;2023-07-20T22:10:12;1014.6;;;15.8;68.1
57799;BME280;43626;53.866;30.298;2023-07-20T22:15:12;1014.7;;;15.8;68.5
57799;BME280;43626;53.866;30.298;2023-07-20T22:20:32;1014.7;;;15.8;68.6
57799;BME280;43626;53.866;30.298;2023-07-20T22:25:59;1014.6;;;15.8;68.5
57799;BME280;43626;53.866;30.298;2023-07-20T22:30:36;1014.7;;;15.8;68.4
57799;BME280;43626;53.866;30.298;2023-07-20T22:35:12;1014.6;;;15.8;68.5
57799;BME280;43626;53.866;30.298;2023-07-20T22:40:38;1014.7;;;15.8;68.6
57799;BME280;43626;53.866;30.298;2023-07-20T22:45:24;1014.7;;;15.8;68.7
57799;BME280;43626;53.866;30.298;2023-07-20T22:50:30;1014.8;;;15.7;69.6
57799;BME280;43626;53.866;30.298;2023-07-20T22:55:36;1014.8;;;15.8;70.6
57799;BME280;43626;53.866;30.298;2023-07-20T23:00:51;1014.8;;;15.8;70.6
57799;BME280;43626;53.866;30.298;2023-07-20T23:05:12;1014.8;;;15.9;70.6
57799;BME280;43626;53.866;30.298;2023-07-20T23:10:30;1014.8;;;15.9;70.6
57799;BME280;43626;53.866;30.298;2023-07-20T23:15:44;1014.8;;;15.9;70.9
57799;BME280;43626;53.866;30.298;2023-07-20T23:20:50;1014.7;;;16;71
57799;BME280;43626;53.866;30.298;2023-07-20T23:25:30;1014.8;;;16;70.9
57799;BME280;43626;53.866;30.298;2023-07-20T23:30:18;1014.8;;;16.1;71.2
57799;BME280;43626;53.866;30.298;2023-07-20T23:35:58;1014.8;;;16.1;71.4
57799;BME280;43626;53.866;30.298;2023-07-20T23:40:18;1014.7;;;16.2;71.3
57799;BME280;43626;53.866;30.298;2023-07-20T23:45:52;1014.7;;;16.2;71.4
57799;BME280;43626;53.866;30.298;2023-07-20T23:50:58;1014.7;;;16.2;71.5
57799;BME280;43626;53.866;30.298;2023-07-20T23:55:58;1014.7;;;16.2;71.5
